Time;durP1;ratioP1;P1;durP2;ratioP2;P2;SDS_P1;SDS_P2;PMS_P1;PMS_P2;Temp;Humidity;BMP_temperature;BMP_pressure;BME280_temperature;BME280_humidity;BME280_pressure;Samples;Min_cycle;Max_cycle;Signal;HPM_P1;HPM_P2
2023/09/19 00:01:14;;;;;;;15.32;3.35;;;;;;;14.38;94.44;100720.94;5086528;28;20024;-70
2023/09/19 00:03:42;;;;;;;15.65;3.47;;;;;;;14.35;94.81;100725.84;5091076;28;20108;-70
2023/09/19 00:06:07;;;;;;;16.80;3.40;;;;;;;14.31;94.79;100730.78;5085647;28;20028;-69
2023/09/19 00:08:33;;;;;;;16.08;3.53;;;;;;;14.25;94.60;100723.56;5089711;28;20024;-70
2023/09/19 00:11:05;;;;;;;17.60;3.47;;;;;;;14.21;94.70;100733.81;5089248;28;20020;-70
2023/09/19 00:13:31;;;;;;;13.15;3.22;;;;;;;14.17;94.73;100734.41;5089933;28;20024;-70
2023/09/19 00:15:58;;;;;;;14.77;3.17;;;;;;;14.14;94.90;100737.44;5090580;28;20396;-70
2023/09/19 00:18:28;;;;;;;15.13;2.90;;;;;;;14.11;95.06;100740.50;5085136;28;20074;-69
2023/09/19 00:20:57;;;;;;;12.27;3.03;;;;;;;14.09;95.06;100740.69;5090075;28;20027;-69
2023/09/19 00:23:22;;;;;;;10.68;2.83;;;;;;;14.12;95.20;100740.31;5081392;28;20021;-70
2023/09/19 00:25:48;;;;;;;12.43;2.85;;;;;;;14.10;95.24;100746.88;5077407;28;20142;-69
2023/09/19 00:28:16;;;;;;;18.20;3.47;;;;;;;14.09;95.08;100751.38;5080391;28;20111;-69
2023/09/19 00:30:45;;;;;;;13.55;2.90;;;;;;;14.07;94.97;100752.59;5086602;28;20085;-69
2023/09/19 00:33:15;;;;;;;17.20;3.03;;;;;;;14.05;94.86;100754.66;5082279;28;20020;-69
2023/09/19 00:35:57;;;;;;;14.15;3.20;;;;;;;14.06;95.21;100758.97;5090677;28;20032;-69
2023/09/19 00:38:26;;;;;;;12.70;3.17;;;;;;;14.08;94.90;100764.94;5085923;28;20016;-69
2023/09/19 00:40:53;;;;;;;17.73;3.40;;;;;;;14.06;94.85;100753.63;5086971;28;20392;-70
2023/09/19 00:43:19;;;;;;;15.30;3.55;;;;;;;14.05;94.84;100773.34;5088849;28;20048;-69
2023/09/19 00:45:47;;;;;;;11.15;2.60;;;;;;;14.07;94.68;100773.97;5078896;28;20020;-70
2023/09/19 00:48:13;;;;;;;13.27;3.13;;;;;;;14.07;94.51;100761.44;5084126;28;20489;-70
2023/09/19 00:50:42;;;;;;;10.90;2.72;;;;;;;14.12;94.88;100776.88;5089227;28;20048;-70
2023/09/19 00:53:08;;;;;;;20.33;4.07;;;;;;;14.16;94.68;100772.78;5084127;28;20020;-69
2023/09/19 00:55:34;;;;;;;17.05;3.15;;;;;;;14.18;94.58;100776.13;5074197;28;20123;-70
2023/09/19 00:57:59;;;;;;;15.38;3.53;;;;;;;14.19;94.33;100788.44;5082404;28;20020;-69
2023/09/19 01:00:25;;;;;;;12.85;3.00;;;;;;;14.19;94.35;100791.94;5089524;28;20020;-69
2023/09/19 01:02:50;;;;;;;16.67;3.72;;;;;;;14.21;93.82;100783.72;5088464;28;20031;-69
2023/09/19 01:05:16;;;;;;;16.77;3.50;;;;;;;14.22;93.82;100786.22;5095561;28;20028;-69
2023/09/19 01:07:42;;;;;;;14.32;3.08;;;;;;;14.24;93.37;100791.34;5086477;28;20476;-69
2023/09/19 01:10:10;;;;;;;11.65;3.03;;;;;;;14.21;93.25;100792.56;5089648;28;20032;-69
2023/09/19 01:12:57;;;;;;;15.45;3.42;;;;;;;14.19;93.11;100796.47;5087458;28;20048;-69
2023/09/19 01:15:40;;;;;;;12.38;3.10;;;;;;;14.14;93.10;100794.34;5088323;28;20028;-70
2023/09/19 01:18:16;;;;;;;12.23;2.67;;;;;;;14.11;92.73;100796.59;5091530;28;20107;-69
2023/09/19 01:20:49;;;;;;;15.63;3.22;;;;;;;14.06;92.32;100791.84;5083078;28;20059;-70
2023/09/19 01:23:48;;;;;;;14.07;2.70;;;;;;;14.04;92.48;100796.53;5084629;28;20024;-69
2023/09/19 01:26:37;;;;;;;15.38;3.78;;;;;;;13.99;92.11;100803.50;5084973;28;20501;-70
2023/09/19 01:29:19;;;;;;;13.80;3.00;;;;;;;13.93;91.80;100797.91;5085790;28;20028;-69
2023/09/19 01:31:46;;;;;;;17.05;3.60;;;;;;;13.89;91.96;100806.50;5080733;28;20020;-69
2023/09/19 01:34:11;;;;;;;12.82;2.92;;;;;;;13.86;91.85;100810.34;5084948;28;20119;-69
2023/09/19 01:36:38;;;;;;;15.38;3.22;;;;;;;13.81;91.45;100812.78;5085024;28;20107;-69
2023/09/19 01:39:15;;;;;;;13.07;3.00;;;;;;;13.81;91.37;100817.28;5081877;28;20028;-69
2023/09/19 01:42:10;;;;;;;16.13;3.30;;;;;;;13.80;90.82;100821.81;5089736;28;20023;-69
2023/09/19 01:44:55;;;;;;;13.50;2.95;;;;;;;13.78;90.47;100818.50;5083027;28;20050;-69
2023/09/19 01:47:32;;;;;;;12.65;3.22;;;;;;;13.72;89.89;100824.63;5077597;28;20089;-69
2023/09/19 01:50:21;;;;;;;12.30;2.97;;;;;;;13.76;89.08;100833.88;5084038;28;20119;-69
2023/09/19 01:52:57;;;;;;;13.10;3.08;;;;;;;13.77;88.47;100826.72;5077996;28;20019;-69
2023/09/19 01:55:26;;;;;;;13.45;2.88;;;;;;;13.72;88.11;100824.63;5078844;28;20052;-70
2023/09/19 01:58:01;;;;;;;11.55;2.92;;;;;;;13.69;88.04;100830.34;5074868;28;20024;-69
2023/09/19 02:00:29;;;;;;;14.52;3.55;;;;;;;13.64;88.18;100822.09;5073215;28;20027;-69
2023/09/19 02:02:57;;;;;;;12.18;2.97;;;;;;;13.62;87.55;100822.28;5072290;28;20523;-69
2023/09/19 02:05:24;;;;;;;10.73;2.65;;;;;;;13.60;87.44;100818.97;5081484;28;20024;-69
2023/09/19 02:07:50;;;;;;;12.98;2.80;;;;;;;13.59;87.50;100819.16;5083468;28;20020;-69
2023/09/19 02:10:17;;;;;;;13.60;2.97;;;;;;;13.58;87.37;100825.50;5078634;28;20028;-70
2023/09/19 02:12:42;;;;;;;16.33;3.20;;;;;;;13.53;87.43;100818.06;5084840;28;20028;-69
2023/09/19 02:15:09;;;;;;;11.93;3.35;;;;;;;13.49;87.56;100821.31;5083243;28;20032;-69
2023/09/19 02:17:34;;;;;;;14.88;3.15;;;;;;;13.49;87.14;100815.97;5080510;28;20028;-70
2023/09/19 02:20:00;;;;;;;11.55;3.05;;;;;;;13.47;86.82;100823.34;5077555;28;20034;-70
2023/09/19 02:22:25;;;;;;;12.63;2.80;;;;;;;13.42;86.75;100821.25;5085684;28;20487;-69
2023/09/19 02:24:52;;;;;;;11.60;2.85;;;;;;;13.38;87.01;100819.97;5084736;28;20060;-69
2023/09/19 02:27:17;;;;;;;10.73;2.67;;;;;;;13.32;87.00;100818.91;5087644;28;20028;-69
2023/09/19 02:29:43;;;;;;;14.18;2.83;;;;;;;13.28;87.31;100833.59;5080036;28;20040;-69
2023/09/19 02:32:11;;;;;;;20.27;3.25;;;;;;;13.26;87.28;100840.13;5080487;28;20027;-70
2023/09/19 02:34:39;;;;;;;12.10;2.90;;;;;;;13.24;86.89;100835.00;5082340;28;20849;-69
2023/09/19 02:37:08;;;;;;;15.27;3.15;;;;;;;13.23;86.78;100841.34;5081789;28;20028;-69
2023/09/19 02:39:34;;;;;;;;;;;;;;;13.23;86.61;100838.69;5093544;28;20057;-70
2023/09/19 02:41:59;;;;;;;12.35;3.10;;;;;;;13.18;86.61;100824.25;5084197;28;19916;-69
2023/09/19 02:44:24;;;;;;;16.08;2.72;;;;;;;13.20;85.94;100835.56;5087673;28;20532;-69
2023/09/19 02:46:50;;;;;;;11.52;3.00;;;;;;;13.20;85.82;100846.22;5077200;28;20032;-69
2023/09/19 02:49:17;;;;;;;13.25;2.63;;;;;;;13.19;85.63;100837.41;5080338;28;20161;-69
2023/09/19 02:51:42;;;;;;;14.02;2.85;;;;;;;13.18;85.26;100840.25;5085393;28;20027;-69
2023/09/19 02:54:08;;;;;;;12.05;3.15;;;;;;;13.18;84.98;100840.25;5085397;28;20431;-69
2023/09/19 02:56:33;;;;;;;15.10;2.55;;;;;;;13.18;84.54;100835.75;5084223;28;20020;-69
2023/09/19 02:59:00;;;;;;;13.27;3.85;;;;;;;13.18;84.13;100841.09;5081817;28;20477;-69
2023/09/19 03:01:26;;;;;;;10.52;2.50;;;;;;;13.17;83.74;100842.09;5084801;28;20032;-69
2023/09/19 03:03:53;;;;;;;15.73;2.78;;;;;;;13.17;83.65;100842.09;5086530;28;20420;-69
2023/09/19 03:06:19;;;;;;;11.50;2.67;;;;;;;13.16;83.19;100839.59;5084412;28;20067;-69
2023/09/19 03:08:46;;;;;;;12.82;2.40;;;;;;;13.15;83.44;100840.59;5082027;28;20028;-69
2023/09/19 03:11:14;;;;;;;11.52;2.72;;;;;;;13.16;83.08;100844.91;5082119;28;20509;-70
2023/09/19 03:13:40;;;;;;;14.85;2.90;;;;;;;13.17;82.50;100842.09;5079646;28;20028;-69
2023/09/19 03:16:05;;;;;;;11.43;2.50;;;;;;;13.20;82.24;100851.56;5091238;28;20027;-69
2023/09/19 03:18:32;;;;;;;13.98;3.20;;;;;;;13.16;82.28;100840.41;5085558;28;20469;-69
2023/09/19 03:20:59;;;;;;;13.82;2.97;;;;;;;13.14;82.38;100847.78;5078486;28;20036;-69
2023/09/19 03:23:25;;;;;;;9.48;2.53;;;;;;;13.11;82.08;100844.66;5082140;28;20030;-69
2023/09/19 03:25:52;;;;;;;11.07;2.50;;;;;;;13.11;81.94;100842.00;5083058;28;20170;-69
2023/09/19 03:28:18;;;;;;;10.32;2.45;;;;;;;13.08;81.78;100842.38;5086252;28;20039;-69
2023/09/19 03:30:43;;;;;;;13.05;3.00;;;;;;;13.05;81.69;100843.56;5088093;28;20032;-69
2023/09/19 03:33:10;;;;;;;11.65;2.75;;;;;;;13.05;81.56;100845.41;5076084;28;20078;-69
2023/09/19 03:35:36;;;;;;;10.85;2.35;;;;;;;13.05;81.41;100840.09;5087459;28;20481;-69
2023/09/19 03:38:02;;;;;;;12.20;2.58;;;;;;;13.00;81.82;100841.44;5081957;28;20042;-69
2023/09/19 03:40:28;;;;;;;13.63;2.67;;;;;;;12.96;81.72;100840.16;5090787;28;20034;-70
2023/09/19 03:42:53;;;;;;;8.50;2.22;;;;;;;12.98;81.69;100831.97;5089555;28;20032;-69
2023/09/19 03:45:19;;;;;;;12.05;2.15;;;;;;;12.97;81.47;100831.16;5083052;28;20103;-69
2023/09/19 03:47:46;;;;;;;15.13;3.10;;;;;;;12.96;81.75;100818.84;5085347;28;20028;-69
2023/09/19 03:50:12;;;;;;;9.63;2.30;;;;;;;12.92;81.94;100819.41;5095834;28;20043;-69
2023/09/19 03:52:37;;;;;;;11.50;2.75;;;;;;;12.96;81.75;100831.34;5086882;28;20027;-69
2023/09/19 03:55:04;;;;;;;11.25;2.47;;;;;;;12.94;81.81;100823.53;5079328;28;20030;-69
2023/09/19 03:57:29;;;;;;;12.90;2.60;;;;;;;12.93;81.85;100831.72;5091124;28;20058;-69
2023/09/19 03:59:55;;;;;;;13.60;3.00;;;;;;;12.93;82.05;100826.38;5085250;28;20120;-69
2023/09/19 04:02:24;;;;;;;14.75;2.80;;;;;;;12.94;82.01;100836.03;5090781;28;20051;-69
2023/09/19 04:04:52;;;;;;;11.93;2.90;;;;;;;12.94;82.15;100820.88;5084706;28;20055;-69
2023/09/19 04:07:22;;;;;;;12.40;2.73;;;;;;;12.94;82.67;100828.88;5078666;28;20025;-69
2023/09/19 04:09:49;;;;;;;;;;;;;;;12.95;82.52;100833.19;5084444;28;20279;-69
2023/09/19 04:12:16;;;;;;;13.88;2.80;;;;;;;12.95;83.21;100827.03;5090787;28;20004;-69
2023/09/19 04:14:42;;;;;;;13.52;2.78;;;;;;;12.97;83.21;100828.50;5084039;28;20028;-69
2023/09/19 04:17:07;;;;;;;12.60;3.50;;;;;;;12.97;83.50;100833.81;5088512;28;20078;-69
2023/09/19 04:19:32;;;;;;;13.55;2.50;;;;;;;12.98;83.54;100839.97;5090584;28;20097;-69
2023/09/19 04:21:58;;;;;;;10.88;2.67;;;;;;;13.02;84.21;100849.28;5085653;28;20031;-69
2023/09/19 04:24:23;;;;;;;10.73;2.58;;;;;;;13.08;83.99;100848.53;5086755;28;20020;-69
2023/09/19 04:26:48;;;;;;;12.05;2.17;;;;;;;13.10;84.29;100851.00;5089080;28;20031;-69
2023/09/19 04:29:13;;;;;;;11.25;2.50;;;;;;;13.10;84.13;100857.16;5088407;28;20035;-69
2023/09/19 04:31:40;;;;;;;16.02;3.08;;;;;;;13.14;84.48;100863.78;5090251;28;20051;-69
2023/09/19 04:34:05;;;;;;;10.10;2.45;;;;;;;13.15;84.84;100875.25;5083928;28;20024;-69
2023/09/19 04:36:30;;;;;;;15.55;2.97;;;;;;;13.18;84.56;100875.75;5079513;28;20051;-69
2023/09/19 04:38:56;;;;;;;14.48;2.85;;;;;;;13.23;84.66;100884.00;5082647;28;20043;-69
2023/09/19 04:41:22;;;;;;;10.20;2.80;;;;;;;13.31;84.54;100891.94;5089650;28;20036;-69
2023/09/19 04:43:49;;;;;;;16.60;3.10;;;;;;;13.34;84.36;100888.06;5083929;28;20028;-69
2023/09/19 04:46:14;;;;;;;11.95;2.65;;;;;;;13.38;84.51;100888.50;5088357;28;20038;-69
2023/09/19 04:48:40;;;;;;;15.85;3.15;;;;;;;13.43;84.31;100896.75;5088205;28;20024;-69
2023/09/19 04:51:05;;;;;;;10.32;2.88;;;;;;;13.44;84.50;100891.25;5090189;28;20436;-69
2023/09/19 04:53:30;;;;;;;9.80;2.50;;;;;;;13.45;84.18;100903.56;5080743;28;20056;-69
2023/09/19 04:55:56;;;;;;;11.57;2.83;;;;;;;13.42;84.42;100905.78;5082453;28;20492;-69
2023/09/19 04:58:22;;;;;;;13.20;2.80;;;;;;;13.41;84.42;100902.28;5084866;28;20035;-69
2023/09/19 05:00:48;;;;;;;11.50;2.60;;;;;;;13.44;84.70;100898.41;5089810;28;20054;-69
2023/09/19 05:03:13;;;;;;;10.75;2.90;;;;;;;13.42;84.98;100900.44;5080490;28;20469;-69
2023/09/19 05:05:40;;;;;;;15.15;3.05;;;;;;;13.42;84.94;100897.78;5080749;28;20036;-69
2023/09/19 05:08:08;;;;;;;12.90;2.85;;;;;;;13.41;85.06;100901.47;5079951;28;20543;-69
2023/09/19 05:10:34;;;;;;;12.43;2.42;;;;;;;13.40;85.37;100908.66;5089531;28;20154;-68
2023/09/19 05:13:00;;;;;;;15.70;2.75;;;;;;;13.39;85.60;100903.50;5086132;28;20016;-69
2023/09/19 05:15:26;;;;;;;16.25;3.03;;;;;;;13.40;85.76;100908.66;5089821;28;20027;-69
2023/09/19 05:17:54;;;;;;;13.98;2.63;;;;;;;13.42;85.70;100925.28;5089124;27;20123;-69
2023/09/19 05:20:29;;;;;;;12.65;3.10;;;;;;;13.41;86.19;100909.47;5087718;28;20039;-69
2023/09/19 05:23:20;;;;;;;10.60;2.53;;;;;;;13.41;86.11;100906.81;5085023;28;20030;-68
2023/09/19 05:25:46;;;;;;;12.35;2.28;;;;;;;13.39;86.10;100909.66;5076867;28;20067;-68
2023/09/19 05:28:14;;;;;;;11.10;2.28;;;;;;;13.40;86.46;100911.31;5084181;28;20048;-68
2023/09/19 05:30:41;;;;;;;12.80;2.78;;;;;;;13.38;86.43;100897.34;5085317;28;20031;-68
2023/09/19 05:33:07;;;;;;;14.88;3.30;;;;;;;13.40;86.63;100911.31;5080793;28;20019;-68
2023/09/19 05:35:33;;;;;;;11.75;2.70;;;;;;;13.38;87.11;100909.84;5082307;28;20020;-69
2023/09/19 05:37:58;;;;;;;12.18;2.65;;;;;;;13.36;87.26;100910.03;5074043;28;20110;-69
2023/09/19 05:40:24;;;;;;;13.13;3.45;;;;;;;13.35;87.36;100919.06;5085120;28;20055;-68
2023/09/19 05:42:53;;;;;;;13.02;2.28;;;;;;;13.38;87.59;100923.19;5090060;28;20024;-68
2023/09/19 05:45:24;;;;;;;12.25;2.58;;;;;;;13.40;87.80;100915.81;5086857;28;20024;-68
2023/09/19 05:47:50;;;;;;;12.13;2.83;;;;;;;13.39;87.84;100919.50;5088820;28;20016;-69
2023/09/19 05:50:16;;;;;;;11.98;2.45;;;;;;;13.42;88.30;100924.47;5081937;28;20107;-68
2023/09/19 05:52:42;;;;;;;14.20;2.33;;;;;;;13.42;88.18;100913.78;5089060;28;20099;-68
2023/09/19 05:55:08;;;;;;;11.70;2.72;;;;;;;13.44;88.37;100915.25;5079152;28;20179;-68
2023/09/19 05:57:34;;;;;;;13.10;2.63;;;;;;;13.43;88.67;100910.94;5088849;28;20140;-68
2023/09/19 06:00:00;;;;;;;11.05;2.58;;;;;;;13.44;88.91;100911.75;5085639;28;20122;-68
2023/09/19 06:02:28;;;;;;;15.55;2.92;;;;;;;13.43;88.90;100916.25;5088115;28;20521;-68
2023/09/19 06:04:55;;;;;;;14.57;2.80;;;;;;;13.45;89.44;100913.41;5083042;28;20481;-69
2023/09/19 06:07:25;;;;;;;12.20;2.60;;;;;;;13.42;89.49;100911.94;5081466;28;21018;-69
2023/09/19 06:09:51;;;;;;;13.23;2.72;;;;;;;13.40;89.72;100900.63;5084908;28;20035;-68
2023/09/19 06:12:17;;;;;;;18.42;2.80;;;;;;;13.41;89.91;100906.81;5086547;28;20412;-68
2023/09/19 06:14:43;;;;;;;12.57;2.72;;;;;;;13.42;90.06;100911.13;5082992;28;20501;-68
2023/09/19 06:17:08;;;;;;;9.13;2.42;;;;;;;13.39;90.17;100908.81;5087425;28;20016;-69
2023/09/19 06:19:33;;;;;;;15.48;4.05;;;;;;;13.40;90.39;100911.31;5084973;28;20035;-69
2023/09/19 06:21:59;;;;;;;12.93;2.70;;;;;;;13.42;90.51;100927.94;5086631;28;20054;-68
2023/09/19 06:24:25;;;;;;;14.32;3.22;;;;;;;13.42;90.74;100919.13;5084100;28;20031;-69
2023/09/19 06:26:52;;;;;;;11.30;2.67;;;;;;;13.42;90.60;100932.47;5083392;28;20096;-68
2023/09/19 06:29:18;;;;;;;12.00;2.67;;;;;;;13.43;90.95;100934.94;5086159;28;20104;-69
2023/09/19 06:31:44;;;;;;;11.50;2.90;;;;;;;13.43;91.17;100942.94;5086834;28;20511;-69
2023/09/19 06:34:10;;;;;;;16.55;3.20;;;;;;;13.44;91.36;100943.78;5086294;28;20464;-68
2023/09/19 06:36:35;;;;;;;12.93;2.80;;;;;;;13.43;91.53;100936.78;5086636;28;20063;-69
2023/09/19 06:39:00;;;;;;;12.27;2.75;;;;;;;13.47;91.40;100948.72;5085856;28;20032;-68
2023/09/19 06:41:26;;;;;;;14.75;2.97;;;;;;;13.45;91.38;100943.59;5084704;28;20063;-68
2023/09/19 06:43:53;;;;;;;14.40;3.10;;;;;;;13.46;91.78;100957.75;5085030;28;20027;-69
2023/09/19 06:46:19;;;;;;;12.15;2.60;;;;;;;13.48;91.92;100958.38;5087756;28;20055;-69
2023/09/19 06:48:44;;;;;;;13.25;3.05;;;;;;;13.48;91.82;100948.53;5082762;28;20086;-68
2023/09/19 06:51:10;;;;;;;15.55;2.70;;;;;;;13.50;92.27;100957.19;5085130;28;20325;-69
2023/09/19 06:53:35;;;;;;;14.23;3.00;;;;;;;13.52;92.31;100946.31;5082395;28;20039;-68
2023/09/19 06:56:02;;;;;;;11.80;2.78;;;;;;;13.54;91.79;100945.13;5086867;28;20055;-68
2023/09/19 06:58:27;;;;;;;17.02;3.00;;;;;;;13.53;92.04;100947.97;5082156;28;20031;-69
2023/09/19 07:00:52;;;;;;;16.15;2.75;;;;;;;13.55;92.22;100945.94;5087502;28;20530;-68
2023/09/19 07:03:20;;;;;;;17.75;3.35;;;;;;;13.54;92.16;100944.28;5085972;28;20113;-68
2023/09/19 07:05:48;;;;;;;12.77;3.15;;;;;;;13.54;92.21;100945.13;5081739;28;20027;-68
2023/09/19 07:08:13;;;;;;;15.52;2.83;;;;;;;13.55;92.64;100937.94;5083003;28;20089;-68
2023/09/19 07:10:48;;;;;;;15.23;3.47;;;;;;;13.56;92.63;100952.94;5085660;28;20160;-68
2023/09/19 07:13:16;;;;;;;14.10;3.08;;;;;;;13.57;92.59;100952.75;5086391;28;20039;-68
2023/09/19 07:15:46;;;;;;;17.90;3.22;;;;;;;13.60;92.66;100954.25;5088478;28;20069;-69
2023/09/19 07:18:12;;;;;;;15.88;3.15;;;;;;;13.62;92.77;100958.38;5088015;28;20103;-69
2023/09/19 07:20:38;;;;;;;12.85;2.70;;;;;;;13.64;92.56;100967.03;5088242;28;20031;-69
2023/09/19 07:23:03;;;;;;;16.63;3.25;;;;;;;13.71;92.58;100955.59;5090672;28;20032;-68
2023/09/19 07:25:29;;;;;;;13.75;3.38;;;;;;;13.71;92.63;100952.91;5085994;28;20434;-69
2023/09/19 07:27:59;;;;;;;13.02;2.85;;;;;;;13.77;91.94;100946.81;5089771;28;20036;-68
2023/09/19 07:30:26;;;;;;;15.18;2.78;;;;;;;13.82;92.24;100944.41;5090342;28;20728;-68
2023/09/19 07:32:51;;;;;;;10.85;2.80;;;;;;;13.86;92.15;100948.34;5089326;28;20016;-68
2023/09/19 07:35:16;;;;;;;15.90;3.08;;;;;;;13.91;92.09;100954.78;5091386;28;20187;-68
2023/09/19 07:37:42;;;;;;;17.15;3.20;;;;;;;13.98;91.97;100959.38;5082348;28;20024;-69
2023/09/19 07:40:09;;;;;;;15.40;3.10;;;;;;;14.05;92.01;100942.38;5087431;28;20032;-68
2023/09/19 07:42:40;;;;;;;14.45;3.05;;;;;;;14.11;91.91;100954.16;5085218;28;20099;-69
2023/09/19 07:45:07;;;;;;;16.13;3.63;;;;;;;14.16;91.73;100957.91;5084660;28;20028;-69
2023/09/19 07:47:33;;;;;;;15.07;3.00;;;;;;;14.21;91.08;100957.34;5091594;28;20016;-69
2023/09/19 07:50:01;;;;;;;11.85;2.80;;;;;;;14.26;90.66;100957.59;5089257;28;20088;-69
2023/09/19 07:52:27;;;;;;;12.52;2.50;;;;;;;14.33;90.57;100961.16;5085600;28;20041;-68
2023/09/19 07:54:53;;;;;;;18.08;3.20;;;;;;;14.38;90.33;100953.38;5088892;28;20012;-68
2023/09/19 07:57:18;;;;;;;16.30;3.15;;;;;;;14.44;90.63;100949.94;5082511;28;20146;-69
2023/09/19 07:59:43;;;;;;;15.60;2.92;;;;;;;14.52;90.62;100962.38;5090055;28;20043;-69
2023/09/19 08:02:15;;;;;;;16.05;3.50;;;;;;;14.57;90.14;100967.97;5090573;28;20024;-69
2023/09/19 08:04:41;;;;;;;17.13;3.17;;;;;;;14.63;89.92;100971.69;5086418;28;20513;-69
2023/09/19 08:07:08;;;;;;;14.50;2.90;;;;;;;14.68;89.29;100970.09;5089333;28;20020;-69
2023/09/19 08:09:34;;;;;;;14.77;3.05;;;;;;;14.73;89.04;100972.19;5090368;28;20016;-69
2023/09/19 08:12:02;;;;;;;14.80;3.40;;;;;;;14.79;89.28;100969.56;5091059;28;20016;-68
2023/09/19 08:14:29;;;;;;;16.58;2.70;;;;;;;14.82;88.49;100971.03;5078184;28;20016;-68
2023/09/19 08:16:59;;;;;;;13.43;2.55;;;;;;;14.86;88.39;100966.94;5086748;28;20024;-68
2023/09/19 08:19:28;;;;;;;16.77;3.17;;;;;;;14.92;88.06;100960.81;5086216;28;20581;-69
2023/09/19 08:22:00;;;;;;;17.02;3.28;;;;;;;14.98;87.76;100965.38;5083247;28;20031;-69
2023/09/19 08:24:29;;;;;;;15.38;3.47;;;;;;;15.00;87.40;100971.34;5088540;28;20062;-69
2023/09/19 08:26:56;;;;;;;14.82;3.35;;;;;;;15.05;87.23;100970.78;5089751;28;20119;-69
2023/09/19 08:29:27;;;;;;;11.93;2.38;;;;;;;15.09;86.77;100970.19;5083766;28;20024;-69
2023/09/19 08:31:58;;;;;;;12.55;2.88;;;;;;;15.15;86.55;100976.59;5089742;28;20481;-69
2023/09/19 08:34:24;;;;;;;12.98;3.47;;;;;;;15.17;86.75;100970.00;5090871;28;20024;-69
2023/09/19 08:36:52;;;;;;;13.65;3.00;;;;;;;15.29;86.92;100974.78;5081137;28;20025;-69
2023/09/19 08:39:18;;;;;;;15.18;3.17;;;;;;;15.38;86.85;100970.94;5084306;28;20024;-69
2023/09/19 08:41:44;;;;;;;17.70;3.10;;;;;;;15.41;86.36;100973.22;5088600;28;20465;-69
2023/09/19 08:44:10;;;;;;;12.30;2.67;;;;;;;15.43;85.35;100979.22;5079496;28;20112;-69
2023/09/19 08:46:38;;;;;;;15.40;3.63;;;;;;;15.42;84.79;100972.19;5083886;28;20044;-69
2023/09/19 08:49:08;;;;;;;15.40;3.67;;;;;;;15.43;84.84;100972.00;5076433;28;20028;-68
2023/09/19 08:51:43;;;;;;;13.45;3.25;;;;;;;15.48;84.94;100966.03;5081527;28;20043;-69
2023/09/19 08:54:19;;;;;;;14.00;3.30;;;;;;;15.58;85.03;100971.03;5088491;28;20047;-69
2023/09/19 08:56:47;;;;;;;12.93;2.95;;;;;;;15.69;84.43;100974.00;5090303;28;20019;-68
2023/09/19 08:59:13;;;;;;;14.68;2.90;;;;;;;15.79;84.69;100976.28;5087160;28;20031;-69
2023/09/19 09:01:41;;;;;;;15.63;2.58;;;;;;;15.86;83.96;100971.75;5090075;28;20012;-69
2023/09/19 09:04:09;;;;;;;9.65;2.67;;;;;;;15.96;83.56;100961.50;5086888;28;20017;-69
2023/09/19 09:06:34;;;;;;;14.32;2.85;;;;;;;16.06;83.84;100974.50;5089912;28;20036;-69
2023/09/19 09:09:00;;;;;;;9.82;2.78;;;;;;;16.08;83.18;100980.47;5081905;28;20051;-69
2023/09/19 09:11:27;;;;;;;14.65;3.42;;;;;;;16.17;83.25;100963.16;5089822;28;20539;-69
2023/09/19 09:13:53;;;;;;;13.00;2.97;;;;;;;16.26;82.81;100975.38;5081651;28;20024;-69
2023/09/19 09:16:18;;;;;;;15.10;3.22;;;;;;;16.29;82.02;100977.63;5087423;28;20020;-69
2023/09/19 09:18:45;;;;;;;12.73;3.47;;;;;;;16.25;81.54;100957.63;5079537;28;20024;-69
2023/09/19 09:21:10;;;;;;;12.35;3.25;;;;;;;16.29;81.54;100963.41;5083669;28;20028;-69
2023/09/19 09:23:36;;;;;;;14.20;2.90;;;;;;;16.30;81.11;100968.56;5086890;28;20124;-69
2023/09/19 09:26:06;;;;;;;14.10;2.78;;;;;;;16.33;80.98;100962.78;5081570;28;20428;-69
2023/09/19 09:28:33;;;;;;;11.15;2.95;;;;;;;16.35;80.28;100962.59;5084874;28;20034;-69
2023/09/19 09:31:00;;;;;;;16.63;3.35;;;;;;;16.45;80.39;100946.09;5084445;28;20024;-69
2023/09/19 09:33:25;;;;;;;14.30;3.00;;;;;;;16.50;80.27;100938.28;5081223;28;20020;-69
2023/09/19 09:35:53;;;;;;;17.23;3.15;;;;;;;16.54;79.74;100952.91;5087883;28;20439;-69
2023/09/19 09:38:20;;;;;;;10.57;2.58;;;;;;;16.59;79.16;100942.38;5087315;28;20503;-69
2023/09/19 09:40:53;;;;;;;10.70;2.92;;;;;;;16.63;78.47;100948.97;5085589;28;20645;-69
2023/09/19 09:43:31;;;;;;;19.40;2.88;;;;;;;16.72;78.49;100943.22;5087833;28;20033;-69
2023/09/19 09:46:11;;;;;;;15.07;3.03;;;;;;;16.84;78.56;100945.28;5085897;28;20428;-69
2023/09/19 09:48:39;;;;;;;12.45;2.97;;;;;;;16.92;78.36;100950.41;5074344;28;20040;-69
2023/09/19 09:51:07;;;;;;;14.55;2.40;;;;;;;16.94;77.31;100934.94;5078965;28;20020;-68
2023/09/19 09:53:33;;;;;;;12.10;2.67;;;;;;;16.97;77.49;100950.59;5080662;28;20028;-69
2023/09/19 09:56:13;;;;;;;14.77;2.70;;;;;;;17.01;77.80;100944.59;5085640;28;20600;-69
2023/09/19 09:58:58;;;;;;;16.23;2.90;;;;;;;17.06;77.51;100953.88;5081447;28;20039;-69
2023/09/19 10:01:26;;;;;;;12.05;2.67;;;;;;;16.99;76.53;100953.91;5088009;28;20032;-69
2023/09/19 10:03:57;;;;;;;12.25;2.55;;;;;;;17.00;76.49;100951.00;5084713;28;20024;-69
2023/09/19 10:06:25;;;;;;;13.18;3.10;;;;;;;17.11;76.04;100951.41;5087383;28;20489;-69
2023/09/19 10:09:12;;;;;;;12.90;2.53;;;;;;;17.22;75.96;100961.47;5086101;28;20035;-69
2023/09/19 10:11:45;;;;;;;12.20;2.47;;;;;;;17.30;75.87;100964.75;5082693;28;20028;-69
2023/09/19 10:14:12;;;;;;;11.70;2.97;;;;;;;17.33;76.08;100963.50;5085386;28;20602;-69
2023/09/19 10:16:46;;;;;;;12.13;2.70;;;;;;;17.35;75.55;100953.41;5087006;28;20104;-69
2023/09/19 10:19:16;;;;;;;17.25;3.00;;;;;;;17.42;75.86;100964.09;5082200;28;20023;-69
2023/09/19 10:21:43;;;;;;;11.70;2.60;;;;;;;17.44;74.88;100962.03;5083048;28;20028;-69
2023/09/19 10:24:09;;;;;;;11.13;2.90;;;;;;;17.38;74.15;100946.78;5086100;28;20107;-69
2023/09/19 10:26:36;;;;;;;14.57;2.70;;;;;;;17.44;73.54;100948.59;5081845;28;20024;-69
2023/09/19 10:29:03;;;;;;;12.27;3.03;;;;;;;17.45;73.01;100936.84;5084862;28;20032;-69
2023/09/19 10:31:33;;;;;;;14.40;3.00;;;;;;;17.49;73.76;100954.97;5075236;28;20027;-69
2023/09/19 10:34:03;;;;;;;12.43;2.50;;;;;;;17.57;73.80;100946.69;5084289;28;20031;-69
2023/09/19 10:36:34;;;;;;;9.77;2.47;;;;;;;17.59;73.95;100947.28;5076338;28;20024;-69
2023/09/19 10:39:04;;;;;;;14.50;3.10;;;;;;;17.67;73.73;100942.72;5079790;28;20016;-69
2023/09/19 10:41:34;;;;;;;10.10;2.33;;;;;;;17.71;72.92;100963.59;5081857;28;20572;-69
2023/09/19 10:44:07;;;;;;;10.20;2.55;;;;;;;17.75;73.35;100937.94;5084873;28;20024;-69
2023/09/19 10:46:33;;;;;;;15.23;2.90;;;;;;;17.72;73.12;100937.56;5083617;28;20030;-69
2023/09/19 10:49:02;;;;;;;9.65;2.28;;;;;;;17.62;72.91;100938.78;5080763;28;20016;-69
2023/09/19 10:51:32;;;;;;;9.35;2.50;;;;;;;17.57;71.62;100962.78;5079112;28;20568;-69
2023/09/19 10:54:07;;;;;;;8.35;2.35;;;;;;;17.62;72.02;100937.97;5079326;28;20016;-69
2023/09/19 10:56:36;;;;;;;13.02;2.55;;;;;;;17.64;72.64;100935.94;5085719;28;20089;-69
2023/09/19 10:59:07;;;;;;;10.90;2.33;;;;;;;17.75;73.15;100942.50;5080257;28;20052;-69
2023/09/19 11:01:47;;;;;;;11.68;2.33;;;;;;;17.79;72.45;100925.72;5083831;28;20109;-69
2023/09/19 11:04:38;;;;;;;18.23;2.65;;;;;;;17.83;72.25;100926.13;5076495;28;20040;-69
2023/09/19 11:07:12;;;;;;;10.60;2.70;;;;;;;17.84;71.09;100904.41;5083548;28;20501;-69
2023/09/19 11:09:48;;;;;;;9.57;2.15;;;;;;;17.82;70.99;100913.72;5072910;28;20098;-68
2023/09/19 11:14:58;;;;;;;11.55;2.45;;;;;;;18.03;71.86;100899.13;5077904;28;20409;-69
2023/09/19 11:17:31;;;;;;;10.18;2.40;;;;;;;18.21;71.05;100904.53;5096183;28;20027;-69
2023/09/19 11:20:23;;;;;;;9.50;2.20;;;;;;;18.33;70.58;100891.22;5082043;28;20077;-69
2023/09/19 11:22:58;;;;;;;9.25;2.38;;;;;;;18.36;69.68;100888.09;5076516;28;20060;-69
2023/09/19 11:25:47;;;;;;;7.65;1.92;;;;;;;18.44;68.97;100885.13;5083172;28;20036;-69
2023/09/19 11:28:15;;;;;;;11.00;2.35;;;;;;;18.53;68.15;100881.94;5089767;28;20051;-69